This is the latest recevied weather packets stored in our database for station/object lu6fg. If no packets are shown the sender has not sent any weather packets the latest 10 day(s).
| Time | Temp. | Humidity | Pressure | Rain* | Wind** | Luminosity | Snow |
|---|---|---|---|---|---|---|---|
| 1777506124 | 18.33° C | 53% | 1013.6 hPa | 0 mm | - | - | - |
| 1777505884 | 18.33° C | 54% | 1013.5 hPa | 0 mm | - | - | - |
| 1777505405 | 18.33° C | 55% | 1013.4 hPa | 0 mm | - | - | - |
| 1777505284 | 18.33° C | 55% | 1013.5 hPa | 0 mm | - | - | - |
| 1777505224 | 18.33° C | 55% | 1013.3 hPa | 0 mm | - | - | - |
| 1777504826 | 17.78° C | 58% | 1013.2 hPa | 0 mm | - | - | - |
| 1777504744 | 17.78° C | 59% | 1013.3 hPa | 0 mm | - | - | - |
| 1777504684 | 17.78° C | 60% | 1013.2 hPa | 0 mm | - | - | - |
| 1777504384 | 17.22° C | 64% | 1013.2 hPa | 0 mm | - | - | - |
| 1777503904 | 16.67° C | 67% | 1013.3 hPa | 0 mm | - | - | - |
| 1777503664 | 17.78° C | 65% | 1013.3 hPa | 0 mm | - | - | - |
| 1777503605 | 17.78° C | 65% | 1013.3 hPa | 0 mm | - | - | - |
| 1777503244 | 18.33° C | 63% | 1013.1 hPa | 0 mm | - | - | - |
| 1777502764 | 18.33° C | 62% | 1013 hPa | 0 mm | - | - | - |
| 1777502464 | 18.89° C | 61% | 1012.9 hPa | 0 mm | - | - | - |
| 1777502344 | 18.89° C | 60% | 1013 hPa | 0 mm | - | - | - |
| 1777502245 | 19.44° C | 59% | 1013.1 hPa | 0 mm | - | - | - |
| 1777502164 | 19.44° C | 58% | 1013.1 hPa | 0 mm | - | - | - |
| 1777501924 | 18.89° C | 57% | 1012.9 hPa | 0 mm | - | - | - |
| 1777501504 | 18.89° C | 61% | 1012.9 hPa | 0 mm | - | - | - |
| 1777501144 | 18.89° C | 62% | 1012.6 hPa | 0 mm | - | - | - |
| 1777500904 | 18.89° C | 61% | 1012.6 hPa | 0 mm | - | - | - |
| 1777500724 | 19.44° C | 62% | 1012.5 hPa | 0 mm | - | - | - |
| 1777500686 | 19.44° C | 62% | 1012.3 hPa | 0 mm | - | - | - |
| 1777500604 | 19.44° C | 61% | 1012.4 hPa | 0 mm | - | - | - |
* Rain latest hour (hover to see other rain measurements)
** Current wind speed in m/s (hover to see current wind gust speed)